sensor_id;sensor_type;location;lat;lon;timestamp;temperature;humidity
32215;DHT22;18708;53.124;23.190;2024-01-06T00:02:15;-6.80;99.90
32215;DHT22;18708;53.124;23.190;2024-01-06T00:04:41;-6.60;99.90
32215;DHT22;18708;53.124;23.190;2024-01-06T00:07:07;-6.50;99.90
32215;DHT22;18708;53.124;23.190;2024-01-06T00:09:32;-6.40;99.90
32215;DHT22;18708;53.124;23.190;2024-01-06T00:11:58;-6.60;99.90
32215;DHT22;18708;53.124;23.190;2024-01-06T00:14:24;-6.80;99.90
32215;DHT22;18708;53.124;23.190;2024-01-06T00:16:50;-7.00;99.90
32215;DHT22;18708;53.124;23.190;2024-01-06T00:19:15;-7.10;99.90
32215;DHT22;18708;53.124;23.190;2024-01-06T00:21:43;-7.10;99.90
32215;DHT22;18708;53.124;23.190;2024-01-06T00:24:08;-7.10;99.90
32215;DHT22;18708;53.124;23.190;2024-01-06T00:26:34;-7.20;99.90
32215;DHT22;18708;53.124;23.190;2024-01-06T00:29:00;-7.10;99.90
32215;DHT22;18708;53.124;23.190;2024-01-06T00:31:25;-7.00;99.90
32215;DHT22;18708;53.124;23.190;2024-01-06T00:33:51;-7.10;99.90
32215;DHT22;18708;53.124;23.190;2024-01-06T00:36:17;-7.00;99.90
32215;DHT22;18708;53.124;23.190;2024-01-06T00:38:42;-6.90;99.90
32215;DHT22;18708;53.124;23.190;2024-01-06T00:41:08;-6.80;99.90
32215;DHT22;18708;53.124;23.190;2024-01-06T00:43:34;-6.80;99.90
32215;DHT22;18708;53.124;23.190;2024-01-06T00:46:00;-6.60;99.90
32215;DHT22;18708;53.124;23.190;2024-01-06T00:48:25;-6.50;99.90
32215;DHT22;18708;53.124;23.190;2024-01-06T00:50:51;-6.50;99.90
32215;DHT22;18708;53.124;23.190;2024-01-06T00:53:16;-6.40;99.90
32215;DHT22;18708;53.124;23.190;2024-01-06T00:55:42;-6.50;99.90
32215;DHT22;18708;53.124;23.190;2024-01-06T00:58:08;-6.60;99.90
32215;DHT22;18708;53.124;23.190;2024-01-06T01:00:34;-6.80;99.90
32215;DHT22;18708;53.124;23.190;2024-01-06T01:02:59;-7.00;99.90
32215;DHT22;18708;53.124;23.190;2024-01-06T01:05:25;-7.00;99.90
32215;DHT22;18708;53.124;23.190;2024-01-06T01:07:51;-6.90;99.90
32215;DHT22;18708;53.124;23.190;2024-01-06T01:10:16;-7.00;99.90
32215;DHT22;18708;53.124;23.190;2024-01-06T01:12:42;-7.00;99.90
32215;DHT22;18708;53.124;23.190;2024-01-06T01:15:08;-7.10;99.90
32215;DHT22;18708;53.124;23.190;2024-01-06T01:17:34;-7.20;99.90
32215;DHT22;18708;53.124;23.190;2024-01-06T01:19:59;-7.20;99.90
32215;DHT22;18708;53.124;23.190;2024-01-06T01:22:25;-7.30;99.90
32215;DHT22;18708;53.124;23.190;2024-01-06T01:24:51;-7.30;99.90
32215;DHT22;18708;53.124;23.190;2024-01-06T01:27:16;-7.30;99.90
32215;DHT22;18708;53.124;23.190;2024-01-06T01:29:42;-7.30;99.90
32215;DHT22;18708;53.124;23.190;2024-01-06T01:32:08;-7.30;99.90
32215;DHT22;18708;53.124;23.190;2024-01-06T01:34:33;-7.20;99.90
32215;DHT22;18708;53.124;23.190;2024-01-06T01:37:00;-7.10;99.90
32215;DHT22;18708;53.124;23.190;2024-01-06T01:39:25;-6.90;99.90
32215;DHT22;18708;53.124;23.190;2024-01-06T01:41:51;-6.90;99.90
32215;DHT22;18708;53.124;23.190;2024-01-06T01:44:17;-6.80;99.90
32215;DHT22;18708;53.124;23.190;2024-01-06T01:46:42;-7.10;99.90
32215;DHT22;18708;53.124;23.190;2024-01-06T01:49:08;-7.20;99.90
32215;DHT22;18708;53.124;23.190;2024-01-06T01:51:35;-7.10;99.90
32215;DHT22;18708;53.124;23.190;2024-01-06T01:54:05;-7.00;99.90
32215;DHT22;18708;53.124;23.190;2024-01-06T01:56:34;-6.90;99.90
32215;DHT22;18708;53.124;23.190;2024-01-06T01:59:05;-6.80;99.90
32215;DHT22;18708;53.124;23.190;2024-01-06T02:01:32;-6.80;99.90
32215;DHT22;18708;53.124;23.190;2024-01-06T02:03:58;-6.70;99.90
32215;DHT22;18708;53.124;23.190;2024-01-06T02:06:24;-6.70;99.90
32215;DHT22;18708;53.124;23.190;2024-01-06T02:08:49;-6.80;99.90
32215;DHT22;18708;53.124;23.190;2024-01-06T02:11:15;-6.70;99.90
32215;DHT22;18708;53.124;23.190;2024-01-06T02:13:41;-6.70;99.90
32215;DHT22;18708;53.124;23.190;2024-01-06T02:16:06;-6.90;99.90
32215;DHT22;18708;53.124;23.190;2024-01-06T02:18:32;-7.10;99.90
32215;DHT22;18708;53.124;23.190;2024-01-06T02:20:59;-7.20;99.90
32215;DHT22;18708;53.124;23.190;2024-01-06T02:23:26;-7.20;99.90
32215;DHT22;18708;53.124;23.190;2024-01-06T02:25:52;-7.10;99.90
32215;DHT22;18708;53.124;23.190;2024-01-06T02:28:18;-6.90;99.90
32215;DHT22;18708;53.124;23.190;2024-01-06T02:30:44;-6.90;99.90
32215;DHT22;18708;53.124;23.190;2024-01-06T02:33:10;-7.10;99.90
32215;DHT22;18708;53.124;23.190;2024-01-06T02:35:36;-7.20;99.90
32215;DHT22;18708;53.124;23.190;2024-01-06T02:38:03;-7.10;99.90
32215;DHT22;18708;53.124;23.190;2024-01-06T02:40:29;-7.00;99.90
32215;DHT22;18708;53.124;23.190;2024-01-06T02:42:54;-7.10;99.90
32215;DHT22;18708;53.124;23.190;2024-01-06T02:45:20;-7.20;99.90
32215;DHT22;18708;53.124;23.190;2024-01-06T02:47:46;-7.10;99.90
32215;DHT22;18708;53.124;23.190;2024-01-06T02:50:11;-7.00;99.90
32215;DHT22;18708;53.124;23.190;2024-01-06T02:52:37;-6.90;99.90
32215;DHT22;18708;53.124;23.190;2024-01-06T02:55:03;-7.00;99.90
32215;DHT22;18708;53.124;23.190;2024-01-06T02:57:30;-6.90;99.90
32215;DHT22;18708;53.124;23.190;2024-01-06T02:59:55;-6.80;99.90
32215;DHT22;18708;53.124;23.190;2024-01-06T03:02:21;-7.00;99.90
32215;DHT22;18708;53.124;23.190;2024-01-06T03:04:47;-6.90;99.90
32215;DHT22;18708;53.124;23.190;2024-01-06T03:07:12;-6.80;99.90
32215;DHT22;18708;53.124;23.190;2024-01-06T03:09:38;-6.70;99.90
32215;DHT22;18708;53.124;23.190;2024-01-06T03:12:07;-6.80;99.90
32215;DHT22;18708;53.124;23.190;2024-01-06T03:14:36;-7.00;99.90
32215;DHT22;18708;53.124;23.190;2024-01-06T03:17:02;-7.00;99.90
32215;DHT22;18708;53.124;23.190;2024-01-06T03:19:28;-7.00;99.90
32215;DHT22;18708;53.124;23.190;2024-01-06T03:21:54;-7.00;99.90
32215;DHT22;18708;53.124;23.190;2024-01-06T03:24:21;-7.00;99.90
32215;DHT22;18708;53.124;23.190;2024-01-06T03:26:47;-7.10;99.90
32215;DHT22;18708;53.124;23.190;2024-01-06T03:29:12;-7.20;99.90
32215;DHT22;18708;53.124;23.190;2024-01-06T03:31:45;-7.20;99.90
32215;DHT22;18708;53.124;23.190;2024-01-06T03:34:11;-7.20;99.90
32215;DHT22;18708;53.124;23.190;2024-01-06T03:36:37;-7.20;99.90
32215;DHT22;18708;53.124;23.190;2024-01-06T03:39:03;-7.20;99.90
32215;DHT22;18708;53.124;23.190;2024-01-06T03:41:29;-7.20;99.90
32215;DHT22;18708;53.124;23.190;2024-01-06T03:43:54;-7.10;99.90
32215;DHT22;18708;53.124;23.190;2024-01-06T03:46:20;-7.00;99.90
32215;DHT22;18708;53.124;23.190;2024-01-06T03:48:46;-6.80;99.90
32215;DHT22;18708;53.124;23.190;2024-01-06T03:51:12;-6.70;99.90
32215;DHT22;18708;53.124;23.190;2024-01-06T03:53:38;-6.70;99.90
32215;DHT22;18708;53.124;23.190;2024-01-06T03:56:05;-6.60;99.90
32215;DHT22;18708;53.124;23.190;2024-01-06T03:58:31;-6.70;99.90
32215;DHT22;18708;53.124;23.190;2024-01-06T04:00:57;-6.80;99.90
32215;DHT22;18708;53.124;23.190;2024-01-06T04:03:23;-6.80;99.90
32215;DHT22;18708;53.124;23.190;2024-01-06T04:05:48;-6.70;99.90
32215;DHT22;18708;53.124;23.190;2024-01-06T04:08:14;-6.70;99.90
32215;DHT22;18708;53.124;23.190;2024-01-06T04:10:40;-6.50;99.90
32215;DHT22;18708;53.124;23.190;2024-01-06T04:13:07;-6.50;99.90
32215;DHT22;18708;53.124;23.190;2024-01-06T04:15:33;-6.60;99.90
32215;DHT22;18708;53.124;23.190;2024-01-06T04:18:02;-6.60;99.90
32215;DHT22;18708;53.124;23.190;2024-01-06T04:20:28;-6.60;99.90
32215;DHT22;18708;53.124;23.190;2024-01-06T04:22:54;-6.60;99.90
32215;DHT22;18708;53.124;23.190;2024-01-06T04:25:19;-6.60;99.90
32215;DHT22;18708;53.124;23.190;2024-01-06T04:27:46;-6.60;99.90
32215;DHT22;18708;53.124;23.190;2024-01-06T04:30:14;-6.80;99.90
32215;DHT22;18708;53.124;23.190;2024-01-06T04:32:40;-6.90;99.90
32215;DHT22;18708;53.124;23.190;2024-01-06T04:35:06;-7.00;99.90
32215;DHT22;18708;53.124;23.190;2024-01-06T04:37:32;-7.10;99.90
32215;DHT22;18708;53.124;23.190;2024-01-06T04:39:58;-7.20;99.90
32215;DHT22;18708;53.124;23.190;2024-01-06T04:42:24;-7.00;99.90
32215;DHT22;18708;53.124;23.190;2024-01-06T04:44:50;-6.90;99.90
32215;DHT22;18708;53.124;23.190;2024-01-06T04:47:16;-6.70;99.90
32215;DHT22;18708;53.124;23.190;2024-01-06T04:49:42;-6.80;99.90
32215;DHT22;18708;53.124;23.190;2024-01-06T04:52:07;-6.80;99.90
32215;DHT22;18708;53.124;23.190;2024-01-06T04:54:33;-6.70;99.90
32215;DHT22;18708;53.124;23.190;2024-01-06T04:56:59;-6.50;99.90
32215;DHT22;18708;53.124;23.190;2024-01-06T04:59:25;-6.50;99.90
32215;DHT22;18708;53.124;23.190;2024-01-06T05:01:51;-6.40;99.90
32215;DHT22;18708;53.124;23.190;2024-01-06T05:04:17;-6.80;99.90
32215;DHT22;18708;53.124;23.190;2024-01-06T05:06:43;-7.00;99.90
32215;DHT22;18708;53.124;23.190;2024-01-06T05:09:09;-7.10;99.90
32215;DHT22;18708;53.124;23.190;2024-01-06T05:11:35;-7.10;99.90
32215;DHT22;18708;53.124;23.190;2024-01-06T05:14:01;-7.10;99.90
32215;DHT22;18708;53.124;23.190;2024-01-06T05:16:26;-7.10;99.90
32215;DHT22;18708;53.124;23.190;2024-01-06T05:18:53;-7.00;99.90
32215;DHT22;18708;53.124;23.190;2024-01-06T05:21:19;-7.10;99.90
32215;DHT22;18708;53.124;23.190;2024-01-06T05:23:45;-6.90;99.90
32215;DHT22;18708;53.124;23.190;2024-01-06T05:26:10;-6.90;99.90
32215;DHT22;18708;53.124;23.190;2024-01-06T05:28:37;-6.80;99.90
32215;DHT22;18708;53.124;23.190;2024-01-06T05:31:03;-6.80;99.90
32215;DHT22;18708;53.124;23.190;2024-01-06T05:33:28;-6.80;99.90
32215;DHT22;18708;53.124;23.190;2024-01-06T05:35:54;-6.80;99.90
32215;DHT22;18708;53.124;23.190;2024-01-06T05:38:20;-6.70;99.90
32215;DHT22;18708;53.124;23.190;2024-01-06T05:40:45;-6.80;99.90
32215;DHT22;18708;53.124;23.190;2024-01-06T05:43:11;-7.00;99.90
32215;DHT22;18708;53.124;23.190;2024-01-06T05:45:37;-7.40;99.90
32215;DHT22;18708;53.124;23.190;2024-01-06T05:48:04;-7.50;99.90
32215;DHT22;18708;53.124;23.190;2024-01-06T05:50:30;-7.60;99.90
32215;DHT22;18708;53.124;23.190;2024-01-06T05:52:55;-7.70;99.90
32215;DHT22;18708;53.124;23.190;2024-01-06T05:55:22;-7.60;99.90
32215;DHT22;18708;53.124;23.190;2024-01-06T05:57:48;-7.40;99.90
32215;DHT22;18708;53.124;23.190;2024-01-06T06:00:14;-7.30;99.90
32215;DHT22;18708;53.124;23.190;2024-01-06T06:02:40;-7.20;99.90
32215;DHT22;18708;53.124;23.190;2024-01-06T06:05:05;-7.50;99.90
32215;DHT22;18708;53.124;23.190;2024-01-06T06:07:31;-7.60;99.90
32215;DHT22;18708;53.124;23.190;2024-01-06T06:09:57;-7.40;99.90
32215;DHT22;18708;53.124;23.190;2024-01-06T06:12:22;-7.30;99.90
32215;DHT22;18708;53.124;23.190;2024-01-06T06:14:48;-7.20;99.90
32215;DHT22;18708;53.124;23.190;2024-01-06T06:17:14;-7.20;99.90
32215;DHT22;18708;53.124;23.190;2024-01-06T06:19:39;-7.20;99.90
32215;DHT22;18708;53.124;23.190;2024-01-06T06:22:05;-7.20;99.90
32215;DHT22;18708;53.124;23.190;2024-01-06T06:24:31;-7.20;99.90
32215;DHT22;18708;53.124;23.190;2024-01-06T06:26:57;-7.20;99.90
32215;DHT22;18708;53.124;23.190;2024-01-06T06:29:23;-7.20;99.90
32215;DHT22;18708;53.124;23.190;2024-01-06T06:31:49;-7.20;99.90
32215;DHT22;18708;53.124;23.190;2024-01-06T06:34:15;-7.20;99.90
32215;DHT22;18708;53.124;23.190;2024-01-06T06:36:40;-7.30;99.90
32215;DHT22;18708;53.124;23.190;2024-01-06T06:39:06;-7.40;99.90
32215;DHT22;18708;53.124;23.190;2024-01-06T06:41:32;-7.50;99.90
32215;DHT22;18708;53.124;23.190;2024-01-06T06:43:58;-7.40;99.90
32215;DHT22;18708;53.124;23.190;2024-01-06T06:46:25;-7.30;99.90
32215;DHT22;18708;53.124;23.190;2024-01-06T06:48:51;-7.30;99.90
32215;DHT22;18708;53.124;23.190;2024-01-06T06:51:16;-7.40;99.90
32215;DHT22;18708;53.124;23.190;2024-01-06T06:53:42;-7.30;99.90
32215;DHT22;18708;53.124;23.190;2024-01-06T06:56:08;-7.40;99.90
32215;DHT22;18708;53.124;23.190;2024-01-06T06:58:33;-7.50;99.90
32215;DHT22;18708;53.124;23.190;2024-01-06T07:00:59;-7.50;99.90
32215;DHT22;18708;53.124;23.190;2024-01-06T07:03:24;-7.60;99.90
32215;DHT22;18708;53.124;23.190;2024-01-06T07:05:52;-7.70;99.90
32215;DHT22;18708;53.124;23.190;2024-01-06T07:08:17;-7.70;99.90
32215;DHT22;18708;53.124;23.190;2024-01-06T07:10:43;-7.70;99.90
32215;DHT22;18708;53.124;23.190;2024-01-06T07:13:09;-7.60;99.90
32215;DHT22;18708;53.124;23.190;2024-01-06T07:15:35;-7.50;99.90
32215;DHT22;18708;53.124;23.190;2024-01-06T07:18:00;-7.50;99.90
32215;DHT22;18708;53.124;23.190;2024-01-06T07:20:26;-7.40;99.90
32215;DHT22;18708;53.124;23.190;2024-01-06T07:22:51;-7.40;99.90
32215;DHT22;18708;53.124;23.190;2024-01-06T07:25:17;-7.40;99.90
32215;DHT22;18708;53.124;23.190;2024-01-06T07:27:43;-7.70;99.90
32215;DHT22;18708;53.124;23.190;2024-01-06T07:30:09;-7.70;99.90
32215;DHT22;18708;53.124;23.190;2024-01-06T07:32:35;-7.70;99.90
32215;DHT22;18708;53.124;23.190;2024-01-06T07:35:00;-7.60;99.90
32215;DHT22;18708;53.124;23.190;2024-01-06T07:37:27;-7.70;99.90
32215;DHT22;18708;53.124;23.190;2024-01-06T07:39:53;-7.90;99.90
32215;DHT22;18708;53.124;23.190;2024-01-06T07:42:19;-8.00;99.90
32215;DHT22;18708;53.124;23.190;2024-01-06T07:44:44;-7.80;99.90
32215;DHT22;18708;53.124;23.190;2024-01-06T07:47:10;-7.70;99.90
32215;DHT22;18708;53.124;23.190;2024-01-06T07:49:36;-7.60;99.90
32215;DHT22;18708;53.124;23.190;2024-01-06T07:52:02;-7.60;99.90
32215;DHT22;18708;53.124;23.190;2024-01-06T07:54:28;-7.70;99.90
32215;DHT22;18708;53.124;23.190;2024-01-06T07:56:54;-7.70;99.90
32215;DHT22;18708;53.124;23.190;2024-01-06T07:59:20;-7.70;99.90
32215;DHT22;18708;53.124;23.190;2024-01-06T08:01:46;-7.60;99.90
32215;DHT22;18708;53.124;23.190;2024-01-06T08:04:12;-7.50;99.90
32215;DHT22;18708;53.124;23.190;2024-01-06T08:06:37;-7.70;99.90
32215;DHT22;18708;53.124;23.190;2024-01-06T08:09:03;-7.60;99.90
32215;DHT22;18708;53.124;23.190;2024-01-06T08:11:29;-7.70;99.90
32215;DHT22;18708;53.124;23.190;2024-01-06T08:13:55;-7.70;99.90
32215;DHT22;18708;53.124;23.190;2024-01-06T08:16:20;-7.60;99.90
32215;DHT22;18708;53.124;23.190;2024-01-06T08:18:46;-7.50;99.90
32215;DHT22;18708;53.124;23.190;2024-01-06T08:21:12;-7.30;99.90
32215;DHT22;18708;53.124;23.190;2024-01-06T08:23:38;-7.30;99.90
32215;DHT22;18708;53.124;23.190;2024-01-06T08:26:05;-7.30;99.90
32215;DHT22;18708;53.124;23.190;2024-01-06T08:28:30;-7.30;99.90
32215;DHT22;18708;53.124;23.190;2024-01-06T08:30:56;-7.20;99.90
32215;DHT22;18708;53.124;23.190;2024-01-06T08:33:22;-7.20;99.90
32215;DHT22;18708;53.124;23.190;2024-01-06T08:35:47;-7.20;99.90
32215;DHT22;18708;53.124;23.190;2024-01-06T08:38:13;-7.20;99.90
32215;DHT22;18708;53.124;23.190;2024-01-06T08:40:40;-7.10;99.90
32215;DHT22;18708;53.124;23.190;2024-01-06T08:43:05;-7.00;99.90
32215;DHT22;18708;53.124;23.190;2024-01-06T08:45:31;-7.00;99.90
32215;DHT22;18708;53.124;23.190;2024-01-06T08:47:57;-7.00;99.90
32215;DHT22;18708;53.124;23.190;2024-01-06T08:50:23;-6.90;99.90
32215;DHT22;18708;53.124;23.190;2024-01-06T08:52:48;-6.90;99.90
32215;DHT22;18708;53.124;23.190;2024-01-06T08:55:14;-6.70;99.90
32215;DHT22;18708;53.124;23.190;2024-01-06T08:57:42;-6.70;99.90
32215;DHT22;18708;53.124;23.190;2024-01-06T09:00:08;-6.70;99.90
32215;DHT22;18708;53.124;23.190;2024-01-06T09:02:34;-6.50;99.90
32215;DHT22;18708;53.124;23.190;2024-01-06T09:05:00;-6.40;99.90
32215;DHT22;18708;53.124;23.190;2024-01-06T09:07:26;-6.20;99.90
32215;DHT22;18708;53.124;23.190;2024-01-06T09:09:51;-6.10;99.90
32215;DHT22;18708;53.124;23.190;2024-01-06T09:12:17;-5.80;99.90
32215;DHT22;18708;53.124;23.190;2024-01-06T09:14:42;-5.50;99.90
32215;DHT22;18708;53.124;23.190;2024-01-06T09:17:08;-5.30;99.90
32215;DHT22;18708;53.124;23.190;2024-01-06T09:19:34;-5.30;99.90
32215;DHT22;18708;53.124;23.190;2024-01-06T09:22:00;-5.30;99.90
32215;DHT22;18708;53.124;23.190;2024-01-06T09:24:26;-5.30;99.90
32215;DHT22;18708;53.124;23.190;2024-01-06T09:26:51;-5.20;99.90
32215;DHT22;18708;53.124;23.190;2024-01-06T09:29:17;-5.00;99.90
32215;DHT22;18708;53.124;23.190;2024-01-06T09:31:43;-4.80;99.90
32215;DHT22;18708;53.124;23.190;2024-01-06T09:34:11;-4.60;99.90
32215;DHT22;18708;53.124;23.190;2024-01-06T09:36:37;-4.30;99.90
32215;DHT22;18708;53.124;23.190;2024-01-06T09:39:03;-3.90;99.90
32215;DHT22;18708;53.124;23.190;2024-01-06T09:41:30;-3.50;99.90
32215;DHT22;18708;53.124;23.190;2024-01-06T09:43:56;-3.20;99.90
32215;DHT22;18708;53.124;23.190;2024-01-06T09:48:52;-2.00;99.90
32215;DHT22;18708;53.124;23.190;2024-01-06T09:51:21;-1.50;99.90
32215;DHT22;18708;53.124;23.190;2024-01-06T09:54:01;-0.90;99.90
32215;DHT22;18708;53.124;23.190;2024-01-06T09:56:28;-0.30;99.90
32215;DHT22;18708;53.124;23.190;2024-01-06T09:58:55;0.10;99.90
32215;DHT22;18708;53.124;23.190;2024-01-06T10:01:22;0.40;99.90
32215;DHT22;18708;53.124;23.190;2024-01-06T10:03:47;0.80;99.90
32215;DHT22;18708;53.124;23.190;2024-01-06T10:06:14;1.30;99.90
32215;DHT22;18708;53.124;23.190;2024-01-06T10:08:43;1.60;99.90
32215;DHT22;18708;53.124;23.190;2024-01-06T10:11:08;1.70;99.90
32215;DHT22;18708;53.124;23.190;2024-01-06T10:13:35;2.10;99.90
32215;DHT22;18708;53.124;23.190;2024-01-06T10:16:06;2.40;99.90
32215;DHT22;18708;53.124;23.190;2024-01-06T10:18:32;2.60;99.90
32215;DHT22;18708;53.124;23.190;2024-01-06T10:20:58;2.90;99.90
32215;DHT22;18708;53.124;23.190;2024-01-06T10:23:26;3.30;99.90
32215;DHT22;18708;53.124;23.190;2024-01-06T10:25:55;3.50;99.90
32215;DHT22;18708;53.124;23.190;2024-01-06T10:28:22;3.90;99.90
32215;DHT22;18708;53.124;23.190;2024-01-06T10:30:54;4.20;99.90
32215;DHT22;18708;53.124;23.190;2024-01-06T10:33:21;4.40;99.90
32215;DHT22;18708;53.124;23.190;2024-01-06T10:35:47;4.70;99.90
32215;DHT22;18708;53.124;23.190;2024-01-06T10:38:14;4.90;98.20
32215;DHT22;18708;53.124;23.190;2024-01-06T10:40:56;5.00;99.80
32215;DHT22;18708;53.124;23.190;2024-01-06T10:43:25;5.00;99.90
32215;DHT22;18708;53.124;23.190;2024-01-06T10:45:51;4.90;95.00
32215;DHT22;18708;53.124;23.190;2024-01-06T10:48:20;4.90;95.50
32215;DHT22;18708;53.124;23.190;2024-01-06T10:50:47;5.00;93.30
32215;DHT22;18708;53.124;23.190;2024-01-06T10:53:15;5.20;98.10
32215;DHT22;18708;53.124;23.190;2024-01-06T10:55:42;5.60;96.20
32215;DHT22;18708;53.124;23.190;2024-01-06T10:58:12;2.90;92.90
32215;DHT22;18708;53.124;23.190;2024-01-06T11:00:38;1.20;98.90
32215;DHT22;18708;53.124;23.190;2024-01-06T11:03:05;2.70;99.00
32215;DHT22;18708;53.124;23.190;2024-01-06T11:05:32;2.70;99.90
32215;DHT22;18708;53.124;23.190;2024-01-06T11:07:58;3.30;95.20
32215;DHT22;18708;53.124;23.190;2024-01-06T11:10:27;4.00;99.40
32215;DHT22;18708;53.124;23.190;2024-01-06T11:15:43;4.20;92.20
32215;DHT22;18708;53.124;23.190;2024-01-06T11:18:30;4.30;97.10
32215;DHT22;18708;53.124;23.190;2024-01-06T11:21:21;4.60;98.00
32215;DHT22;18708;53.124;23.190;2024-01-06T11:24:17;4.80;96.40
32215;DHT22;18708;53.124;23.190;2024-01-06T11:26:49;5.00;92.20
32215;DHT22;18708;53.124;23.190;2024-01-06T11:29:14;5.40;96.70
32215;DHT22;18708;53.124;23.190;2024-01-06T11:31:40;5.20;93.40
32215;DHT22;18708;53.124;23.190;2024-01-06T11:34:16;4.80;85.20
32215;DHT22;18708;53.124;23.190;2024-01-06T11:36:46;4.00;92.00
32215;DHT22;18708;53.124;23.190;2024-01-06T11:39:34;3.90;90.30
32215;DHT22;18708;53.124;23.190;2024-01-06T11:42:02;4.10;94.10
32215;DHT22;18708;53.124;23.190;2024-01-06T11:44:28;4.50;92.40
32215;DHT22;18708;53.124;23.190;2024-01-06T11:46:57;5.20;96.30
32215;DHT22;18708;53.124;23.190;2024-01-06T11:49:26;5.00;84.00
32215;DHT22;18708;53.124;23.190;2024-01-06T11:51:59;4.80;88.90
32215;DHT22;18708;53.124;23.190;2024-01-06T11:54:24;4.60;87.20
32215;DHT22;18708;53.124;23.190;2024-01-06T11:56:50;3.80;90.10
32215;DHT22;18708;53.124;23.190;2024-01-06T11:59:19;4.30;95.80
32215;DHT22;18708;53.124;23.190;2024-01-06T12:01:46;4.60;95.10
32215;DHT22;18708;53.124;23.190;2024-01-06T12:04:14;5.00;86.40
32215;DHT22;18708;53.124;23.190;2024-01-06T12:06:41;5.40;93.60
32215;DHT22;18708;53.124;23.190;2024-01-06T12:09:09;5.70;93.30
32215;DHT22;18708;53.124;23.190;2024-01-06T12:11:35;5.70;94.00
32215;DHT22;18708;53.124;23.190;2024-01-06T12:14:02;5.90;90.50
32215;DHT22;18708;53.124;23.190;2024-01-06T12:16:28;6.00;93.10
32215;DHT22;18708;53.124;23.190;2024-01-06T12:18:55;5.70;92.20
32215;DHT22;18708;53.124;23.190;2024-01-06T12:21:24;6.00;87.70
32215;DHT22;18708;53.124;23.190;2024-01-06T12:23:49;6.30;86.00
32215;DHT22;18708;53.124;23.190;2024-01-06T12:26:17;6.60;90.50
32215;DHT22;18708;53.124;23.190;2024-01-06T12:28:47;5.50;76.30
32215;DHT22;18708;53.124;23.190;2024-01-06T12:31:14;5.50;78.40
32215;DHT22;18708;53.124;23.190;2024-01-06T12:33:40;5.10;73.90
32215;DHT22;18708;53.124;23.190;2024-01-06T12:36:11;4.40;81.50
32215;DHT22;18708;53.124;23.190;2024-01-06T12:38:42;4.00;92.20
32215;DHT22;18708;53.124;23.190;2024-01-06T12:41:07;3.10;85.70
32215;DHT22;18708;53.124;23.190;2024-01-06T12:43:33;3.10;91.00
32215;DHT22;18708;53.124;23.190;2024-01-06T12:46:01;2.90;91.60
32215;DHT22;18708;53.124;23.190;2024-01-06T12:48:26;2.90;93.80
32215;DHT22;18708;53.124;23.190;2024-01-06T12:50:53;2.40;90.40
32215;DHT22;18708;53.124;23.190;2024-01-06T12:53:19;1.90;90.90
32215;DHT22;18708;53.124;23.190;2024-01-06T12:55:44;1.90;93.00
32215;DHT22;18708;53.124;23.190;2024-01-06T12:58:10;1.80;94.20
32215;DHT22;18708;53.124;23.190;2024-01-06T13:00:36;1.60;94.80
32215;DHT22;18708;53.124;23.190;2024-01-06T13:03:02;1.40;91.80
32215;DHT22;18708;53.124;23.190;2024-01-06T13:05:29;1.20;93.10
32215;DHT22;18708;53.124;23.190;2024-01-06T13:07:55;1.10;94.50
32215;DHT22;18708;53.124;23.190;2024-01-06T13:10:22;1.00;93.30
32215;DHT22;18708;53.124;23.190;2024-01-06T13:12:48;0.90;94.60
32215;DHT22;18708;53.124;23.190;2024-01-06T13:15:14;0.80;94.60
32215;DHT22;18708;53.124;23.190;2024-01-06T13:17:40;0.70;93.80
32215;DHT22;18708;53.124;23.190;2024-01-06T13:20:06;0.50;94.20
32215;DHT22;18708;53.124;23.190;2024-01-06T13:22:33;0.40;94.60
32215;DHT22;18708;53.124;23.190;2024-01-06T13:24:59;0.00;96.20
32215;DHT22;18708;53.124;23.190;2024-01-06T13:27:25;-0.10;95.60
32215;DHT22;18708;53.124;23.190;2024-01-06T13:29:53;-0.20;96.10
32215;DHT22;18708;53.124;23.190;2024-01-06T13:32:19;-0.30;96.30
32215;DHT22;18708;53.124;23.190;2024-01-06T13:34:45;-0.40;97.10
32215;DHT22;18708;53.124;23.190;2024-01-06T13:37:11;-0.50;97.10
32215;DHT22;18708;53.124;23.190;2024-01-06T13:39:37;-0.60;97.50
32215;DHT22;18708;53.124;23.190;2024-01-06T13:42:03;-0.70;97.40
32215;DHT22;18708;53.124;23.190;2024-01-06T13:44:29;-0.80;97.70
32215;DHT22;18708;53.124;23.190;2024-01-06T13:46:54;-0.90;98.20
32215;DHT22;18708;53.124;23.190;2024-01-06T13:49:21;-1.00;98.80
32215;DHT22;18708;53.124;23.190;2024-01-06T13:51:48;-1.10;99.10
32215;DHT22;18708;53.124;23.190;2024-01-06T13:54:14;-1.20;99.50
32215;DHT22;18708;53.124;23.190;2024-01-06T13:56:40;-1.40;99.90
32215;DHT22;18708;53.124;23.190;2024-01-06T13:59:05;-1.50;99.90
32215;DHT22;18708;53.124;23.190;2024-01-06T14:01:31;-1.60;99.90
32215;DHT22;18708;53.124;23.190;2024-01-06T14:03:57;-1.60;99.90
32215;DHT22;18708;53.124;23.190;2024-01-06T14:06:26;-1.70;99.90
32215;DHT22;18708;53.124;23.190;2024-01-06T14:08:59;-1.80;99.90
32215;DHT22;18708;53.124;23.190;2024-01-06T14:11:28;-1.90;99.90
32215;DHT22;18708;53.124;23.190;2024-01-06T14:13:57;-2.00;99.90
32215;DHT22;18708;53.124;23.190;2024-01-06T14:16:23;-2.20;99.90
32215;DHT22;18708;53.124;23.190;2024-01-06T14:18:49;-2.30;99.90
32215;DHT22;18708;53.124;23.190;2024-01-06T14:21:14;-2.30;99.90
32215;DHT22;18708;53.124;23.190;2024-01-06T14:23:41;-2.60;99.90
32215;DHT22;18708;53.124;23.190;2024-01-06T14:26:07;-2.80;99.90
32215;DHT22;18708;53.124;23.190;2024-01-06T14:28:33;-2.80;99.90
32215;DHT22;18708;53.124;23.190;2024-01-06T14:30:58;-2.70;99.90
32215;DHT22;18708;53.124;23.190;2024-01-06T14:33:24;-2.90;99.90
32215;DHT22;18708;53.124;23.190;2024-01-06T14:35:50;-3.00;99.90
32215;DHT22;18708;53.124;23.190;2024-01-06T14:38:16;-3.20;99.90
32215;DHT22;18708;53.124;23.190;2024-01-06T14:40:41;-3.20;99.90
32215;DHT22;18708;53.124;23.190;2024-01-06T14:43:07;-3.40;99.90
32215;DHT22;18708;53.124;23.190;2024-01-06T14:45:33;-3.40;99.90
32215;DHT22;18708;53.124;23.190;2024-01-06T14:47:59;-3.40;99.90
32215;DHT22;18708;53.124;23.190;2024-01-06T14:50:27;-3.60;99.90
32215;DHT22;18708;53.124;23.190;2024-01-06T14:52:53;-3.80;99.90
32215;DHT22;18708;53.124;23.190;2024-01-06T14:55:18;-3.80;99.90
32215;DHT22;18708;53.124;23.190;2024-01-06T14:57:44;-3.90;99.90
32215;DHT22;18708;53.124;23.190;2024-01-06T15:00:10;-3.90;99.90
32215;DHT22;18708;53.124;23.190;2024-01-06T15:02:39;-3.90;99.90
32215;DHT22;18708;53.124;23.190;2024-01-06T15:05:06;-4.00;99.90
32215;DHT22;18708;53.124;23.190;2024-01-06T15:07:32;-4.00;99.90
32215;DHT22;18708;53.124;23.190;2024-01-06T15:10:01;-4.10;99.90
32215;DHT22;18708;53.124;23.190;2024-01-06T15:12:27;-4.10;99.90
32215;DHT22;18708;53.124;23.190;2024-01-06T15:14:53;-4.20;99.90
32215;DHT22;18708;53.124;23.190;2024-01-06T15:17:19;-4.20;99.90
32215;DHT22;18708;53.124;23.190;2024-01-06T15:19:48;-4.40;99.90
32215;DHT22;18708;53.124;23.190;2024-01-06T15:22:14;-4.30;99.90